Time;durP1;ratioP1;P1;durP2;ratioP2;P2;SDS_P1;SDS_P2;PMS_P1;PMS_P2;Temp;Humidity;BMP_temperature;BMP_pressure;BME280_temperature;BME280_humidity;BME280_pressure;Samples;Min_cycle;Max_cycle;Signal;HPM_P1;HPM_P2
2023/05/15 00:01:02;;;;;;;4.50;2.75;;;23.60;53.60;;;;;;5069762;28;20043;-66
2023/05/15 00:03:29;;;;;;;3.13;2.40;;;23.70;53.60;;;;;;5068994;28;20099;-66
2023/05/15 00:05:55;;;;;;;2.67;2.22;;;23.70;53.80;;;;;;5069500;28;20532;-66
2023/05/15 00:08:21;;;;;;;4.53;2.20;;;23.70;53.80;;;;;;5071760;28;20397;-65
2023/05/15 00:10:47;;;;;;;2.40;2.20;;;23.60;53.80;;;;;;5052809;28;20075;-66
2023/05/15 00:13:13;;;;;;;2.20;2.00;;;23.60;53.70;;;;;;5068945;28;20555;-66
2023/05/15 00:15:39;;;;;;;7.13;2.55;;;23.70;53.80;;;;;;5069303;28;20083;-65
2023/05/15 00:18:05;;;;;;;2.65;1.63;;;23.70;53.70;;;;;;5069312;28;20047;-65
2023/05/15 00:20:31;;;;;;;3.25;2.20;;;23.70;53.80;;;;;;5068802;28;20049;-66
2023/05/15 00:22:57;;;;;;;3.78;2.63;;;23.70;53.90;;;;;;5068776;28;20040;-65
2023/05/15 00:25:23;;;;;;;2.85;2.47;;;23.70;53.90;;;;;;5070740;28;20048;-67
2023/05/15 00:27:49;;;;;;;4.22;2.30;;;23.70;53.90;;;;;;5071510;28;20161;-66
2023/05/15 00:30:15;;;;;;;4.35;2.58;;;23.70;53.90;;;;;;5071313;28;20045;-66
2023/05/15 00:32:41;;;;;;;6.68;2.22;;;23.60;53.90;;;;;;5071609;28;20025;-66
2023/05/15 00:35:08;;;;;;;3.97;2.45;;;23.70;54.00;;;;;;5071441;28;20032;-65
2023/05/15 00:37:34;;;;;;;2.95;2.60;;;23.60;53.90;;;;;;5071379;28;20028;-66
2023/05/15 00:40:00;;;;;;;5.53;2.05;;;23.60;53.80;;;;;;5071508;28;20106;-66
2023/05/15 00:42:27;;;;;;;3.60;2.20;;;23.70;53.90;;;;;;5070230;28;20040;-66
2023/05/15 00:44:55;;;;;;;2.92;2.33;;;23.60;53.80;;;;;;5069999;28;20441;-65
2023/05/15 00:47:22;;;;;;;3.63;2.20;;;23.60;53.80;;;;;;5070071;28;20329;-66
2023/05/15 00:49:50;;;;;;;2.92;2.17;;;23.70;53.90;;;;;;5069862;28;20052;-66
2023/05/15 00:52:19;;;;;;;3.72;2.35;;;23.60;53.80;;;;;;5076961;28;20040;-66
2023/05/15 00:54:45;;;;;;;5.05;2.20;;;23.50;53.90;;;;;;5090168;28;20494;-64
2023/05/15 00:57:12;;;;;;;3.58;2.28;;;23.60;54.00;;;;;;5091313;28;20407;-66
2023/05/15 00:59:39;;;;;;;3.47;2.70;;;23.50;54.00;;;;;;5082942;28;20438;-65
2023/05/15 01:02:05;;;;;;;2.85;2.42;;;23.60;54.10;;;;;;5070831;28;20552;-66
2023/05/15 01:04:31;;;;;;;4.18;2.20;;;23.50;54.10;;;;;;5069984;28;20040;-66
2023/05/15 01:06:57;;;;;;;2.83;2.38;;;23.40;54.00;;;;;;5071310;28;20525;-65
2023/05/15 01:09:26;;;;;;;4.78;2.10;;;23.60;54.10;;;;;;5069680;28;20094;-66
2023/05/15 01:11:54;;;;;;;3.55;2.20;;;23.60;54.00;;;;;;5069777;28;20632;-66
2023/05/15 01:14:20;;;;;;;5.43;2.38;;;23.50;54.00;;;;;;5070868;28;20033;-66
2023/05/15 01:16:46;;;;;;;2.47;2.20;;;23.50;54.00;;;;;;5070108;28;20088;-66
2023/05/15 01:19:12;;;;;;;2.80;2.28;;;23.40;54.00;;;;;;5070827;28;20055;-66
2023/05/15 01:21:53;;;;;;;2.60;2.17;;;23.50;54.20;;;;;;5071066;28;20066;-65
2023/05/15 01:24:41;;;;;;;4.63;2.30;;;23.50;54.20;;;;;;5069412;28;20127;-66
2023/05/15 01:27:35;;;;;;;3.38;2.25;;;23.50;54.20;;;;;;5071026;28;20037;-66
2023/05/15 01:30:19;;;;;;;2.92;2.10;;;23.60;54.20;;;;;;5070578;28;20037;-66
2023/05/15 01:33:02;;;;;;;2.78;2.00;;;23.50;54.20;;;;;;5070575;28;20044;-65
2023/05/15 01:35:37;;;;;;;2.28;2.08;;;23.60;54.00;;;;;;5069432;28;20554;-66
2023/05/15 01:38:13;;;;;;;4.63;2.40;;;23.60;54.00;;;;;;5069406;28;20032;-66
2023/05/15 01:40:40;;;;;;;2.78;2.03;;;23.70;54.20;;;;;;5070534;28;20032;-65
2023/05/15 01:43:15;;;;;;;4.38;2.53;;;23.50;54.20;;;;;;5070476;28;20043;-64
2023/05/15 01:45:42;;;;;;;3.13;1.70;;;23.70;54.20;;;;;;5069421;28;20095;-66
2023/05/15 01:48:11;;;;;;;5.13;2.58;;;23.50;54.00;;;;;;5052669;28;20104;-66
2023/05/15 01:50:39;;;;;;;2.92;2.53;;;23.60;53.90;;;;;;5070628;28;20047;-65
2023/05/15 01:53:07;;;;;;;2.30;2.10;;;23.70;54.10;;;;;;5069452;28;20087;-65
2023/05/15 01:55:35;;;;;;;4.38;2.10;;;23.60;54.00;;;;;;5070717;28;20039;-66
2023/05/15 01:58:01;;;;;;;4.72;2.20;;;23.50;54.10;;;;;;5069434;28;20032;-66
2023/05/15 02:00:29;;;;;;;2.30;1.90;;;23.50;54.00;;;;;;5069626;28;20119;-66
2023/05/15 02:02:56;;;;;;;2.60;2.05;;;23.60;54.10;;;;;;5069174;28;20063;-66
2023/05/15 02:05:23;;;;;;;3.13;2.17;;;23.60;54.10;;;;;;5069138;28;20547;-65
2023/05/15 02:07:50;;;;;;;2.30;1.80;;;23.60;54.20;;;;;;5070397;28;20119;-66
2023/05/15 02:10:17;;;;;;;2.30;1.98;;;23.50;54.30;;;;;;5054627;28;20090;-66
2023/05/15 02:12:48;;;;;;;3.55;2.53;;;23.50;54.30;;;;;;5072295;28;20036;-66
2023/05/15 02:15:17;;;;;;;3.53;1.98;;;23.50;54.30;;;;;;5073954;28;20495;-66
2023/05/15 02:17:45;;;;;;;3.53;2.42;;;23.40;54.10;;;;;;5073914;28;20482;-65
2023/05/15 02:20:13;;;;;;;3.47;1.75;;;23.40;54.10;;;;;;5072378;28;20067;-65
2023/05/15 02:22:39;;;;;;;2.60;1.83;;;23.60;54.10;;;;;;5072458;28;20033;-65
2023/05/15 02:25:05;;;;;;;3.60;2.05;;;23.50;54.10;;;;;;5072672;28;20044;-65
2023/05/15 02:27:56;;;;;;;3.72;2.33;;;23.40;54.00;;;;;;5074233;28;20036;-66
2023/05/15 02:30:28;;;;;;;4.97;2.05;;;23.40;54.00;;;;;;5072460;28;20549;-66
2023/05/15 02:33:13;;;;;;;2.13;1.92;;;23.60;54.20;;;;;;5072570;28;20093;-66
2023/05/15 02:35:54;;;;;;;3.58;2.20;;;23.40;54.20;;;;;;5073840;28;20033;-65
2023/05/15 02:38:32;;;;;;;5.05;2.28;;;23.40;54.20;;;;;;5072613;28;20152;-65
2023/05/15 02:40:59;;;;;;;4.10;2.35;;;23.40;54.40;;;;;;5073559;28;20469;-65
2023/05/15 02:43:26;;;;;;;2.42;1.98;;;23.30;54.50;;;;;;5080285;28;20039;-66
2023/05/15 02:45:55;;;;;;;4.95;2.28;;;23.50;54.80;;;;;;5092461;28;20460;-64
2023/05/15 02:48:21;;;;;;;2.83;2.13;;;23.40;54.70;;;;;;5075609;28;20130;-66
2023/05/15 02:50:47;;;;;;;2.63;2.10;;;23.40;54.60;;;;;;5094026;28;20040;-66
2023/05/15 02:53:14;;;;;;;3.30;2.13;;;23.40;54.50;;;;;;5093650;28;20073;-65
2023/05/15 02:55:41;;;;;;;3.05;2.75;;;23.40;54.60;;;;;;5092668;28;20066;-66
2023/05/15 02:58:07;;;;;;;2.60;2.13;;;23.40;54.70;;;;;;5092248;28;20040;-66
2023/05/15 03:00:33;;;;;;;2.85;2.33;;;23.40;54.70;;;;;;5093345;28;20112;-65
2023/05/15 03:02:59;;;;;;;3.03;2.58;;;23.40;54.70;;;;;;5093425;28;20032;-66
2023/05/15 03:05:25;;;;;;;5.55;2.33;;;23.50;54.80;;;;;;5092231;28;20183;-65
2023/05/15 03:07:51;;;;;;;8.93;2.40;;;23.40;54.70;;;;;;5090208;28;20459;-66
2023/05/15 03:10:19;;;;;;;4.60;3.10;;;23.40;54.60;;;;;;5091953;28;20024;-66
2023/05/15 03:12:46;;;;;;;6.50;3.25;;;23.60;54.70;;;;;;5091783;28;20464;-66
2023/05/15 03:15:12;;;;;;;6.53;3.15;;;23.60;54.80;;;;;;5093644;28;20103;-65
2023/05/15 03:17:38;;;;;;;5.88;2.38;;;23.50;54.90;;;;;;5093302;28;20039;-66
2023/05/15 03:20:05;;;;;;;7.63;2.47;;;23.50;55.00;;;;;;5093195;28;20197;-65
2023/05/15 03:22:31;;;;;;;4.47;2.58;;;23.50;55.00;;;;;;5091792;28;20039;-65
2023/05/15 03:24:57;;;;;;;5.15;2.70;;;23.60;54.80;;;;;;5091889;28;20032;-66
2023/05/15 03:27:22;;;;;;;6.13;3.25;;;23.60;54.80;;;;;;5092779;28;20038;-65
2023/05/15 03:29:49;;;;;;;4.03;2.22;;;23.60;54.70;;;;;;5091752;28;20539;-65
2023/05/15 03:32:16;;;;;;;3.13;2.30;;;23.60;54.60;;;;;;5092585;28;20040;-66
2023/05/15 03:34:42;;;;;;;5.32;2.38;;;23.60;54.50;;;;;;5070009;28;20059;-66
2023/05/15 03:37:08;;;;;;;5.80;2.28;;;23.80;54.50;;;;;;5070118;28;20037;-65
2023/05/15 03:39:34;;;;;;;3.83;2.03;;;23.90;54.50;;;;;;5070014;28;20154;-66
2023/05/15 03:42:01;;;;;;;2.50;2.10;;;23.80;54.30;;;;;;5069932;28;20043;-66
2023/05/15 03:44:28;;;;;;;2.72;1.88;;;23.90;54.40;;;;;;5069736;28;20051;-65
2023/05/15 03:46:54;;;;;;;3.75;1.98;;;23.90;54.30;;;;;;5070025;28;20032;-64
2023/05/15 03:49:20;;;;;;;5.25;2.15;;;23.90;54.30;;;;;;5069693;28;20052;-66
2023/05/15 03:51:46;;;;;;;5.03;2.00;;;23.90;54.40;;;;;;5053194;28;20646;-66
2023/05/15 03:54:13;;;;;;;3.28;2.50;;;23.80;54.30;;;;;;5069408;28;20495;-68
2023/05/15 03:56:39;;;;;;;4.65;2.28;;;24.00;54.80;;;;;;5053275;28;20044;-69
2023/05/15 03:59:05;;;;;;;1.83;1.73;;;24.00;54.80;;;;;;5052922;28;20025;-69
2023/05/15 04:01:31;;;;;;;6.40;2.42;;;24.00;54.00;;;;;;5069610;28;20033;-63
2023/05/15 04:03:56;;;;;;;2.13;1.05;;;24.00;53.00;;;;;;5069502;28;20064;-63
2023/05/15 04:06:22;;;;;;;1.05;0.95;;;24.00;53.70;;;;;;5083887;28;20109;-64
2023/05/15 04:08:49;;;;;;;0.85;0.85;;;24.10;53.60;;;;;;5092204;28;20047;-64
2023/05/15 04:11:15;;;;;;;0.90;0.90;;;24.20;54.40;;;;;;5090985;28;20044;-65
2023/05/15 04:13:41;;;;;;;1.20;1.20;;;24.20;53.80;;;;;;5092193;28;20032;-64
2023/05/15 04:16:07;;;;;;;1.23;1.13;;;24.20;54.80;;;;;;5092163;28;20487;-64
2023/05/15 04:18:33;;;;;;;3.25;1.15;;;24.30;55.80;;;;;;5091993;28;20457;-65
2023/05/15 04:20:59;;;;;;;2.45;1.27;;;24.30;55.60;;;;;;5090604;28;20048;-65
2023/05/15 04:23:25;;;;;;;1.83;1.38;;;24.30;57.30;;;;;;5091698;28;20035;-65
2023/05/15 04:25:52;;;;;;;3.55;3.25;;;24.50;60.00;;;;;;5091748;28;20043;-65
2023/05/15 04:28:21;;;;;;;9.80;4.97;;;24.50;60.60;;;;;;5090696;28;20074;-65
2023/05/15 04:30:47;;;;;;;6.80;5.53;;;24.70;61.10;;;;;;5091988;28;20040;-64
2023/05/15 04:33:13;;;;;;;24.27;8.20;;;24.50;62.50;;;;;;5091636;28;20369;-65
2023/05/15 04:35:39;;;;;;;17.90;10.55;;;24.60;61.20;;;;;;5091429;28;20074;-65
2023/05/15 04:38:06;;;;;;;7.85;3.92;;;24.60;56.90;;;;;;5091146;28;20020;-65
2023/05/15 04:40:32;;;;;;;8.98;3.53;;;24.50;47.30;;;;;;5091682;28;20032;-65
2023/05/15 04:42:57;;;;;;;7.03;3.33;;;24.40;45.50;;;;;;5091810;28;20364;-65
2023/05/15 04:45:23;;;;;;;5.53;3.08;;;24.40;44.60;;;;;;5091636;28;20027;-65
2023/05/15 04:47:50;;;;;;;7.25;3.00;;;24.30;44.30;;;;;;5091501;28;20468;-65
2023/05/15 04:50:16;;;;;;;4.60;2.65;;;24.30;44.40;;;;;;5091490;28;20047;-65
2023/05/15 04:52:42;;;;;;;4.80;2.38;;;24.10;44.20;;;;;;5091213;28;20456;-65
2023/05/15 04:55:08;;;;;;;2.50;2.03;;;24.30;51.60;;;;;;5091413;28;20488;-66
2023/05/15 04:57:34;;;;;;;6.93;3.67;;;24.30;51.20;;;;;;5091653;28;20043;-66
2023/05/15 05:00:01;;;;;;;5.10;2.92;;;24.40;50.70;;;;;;5090963;28;20100;-66
2023/05/15 05:02:27;;;;;;;5.43;2.85;;;24.30;50.40;;;;;;5090764;28;20069;-65
2023/05/15 05:04:53;;;;;;;4.13;2.53;;;24.30;50.50;;;;;;5090251;28;20024;-65
2023/05/15 05:07:19;;;;;;;9.93;2.88;;;24.30;51.40;;;;;;5091541;28;20077;-66
2023/05/15 05:09:45;;;;;;;4.47;2.80;;;24.30;51.70;;;;;;5091010;28;20123;-65
2023/05/15 05:12:11;;;;;;;6.43;2.95;;;24.20;49.10;;;;;;5091495;28;20122;-65
2023/05/15 05:14:40;;;;;;;7.45;2.40;;;24.20;51.40;;;;;;5091051;28;20031;-65
2023/05/15 05:17:06;;;;;;;8.35;2.92;;;24.20;52.30;;;;;;5089945;28;20441;-66
2023/05/15 05:19:32;;;;;;;4.65;3.05;;;24.10;51.70;;;;;;5089831;28;20063;-66
2023/05/15 05:22:03;;;;;;;3.30;2.47;;;24.20;52.70;;;;;;5091245;28;20036;-66
2023/05/15 05:24:30;;;;;;;8.25;2.92;;;24.10;52.20;;;;;;5091137;28;20432;-65
2023/05/15 05:26:57;;;;;;;4.90;2.25;;;24.10;44.00;;;;;;5073202;28;20514;-65
2023/05/15 05:29:23;;;;;;;3.15;2.22;;;24.20;53.00;;;;;;5091496;28;20036;-65
2023/05/15 05:31:50;;;;;;;3.92;2.22;;;24.20;52.00;;;;;;5089942;28;20044;-64
2023/05/15 05:34:16;;;;;;;11.07;2.75;;;24.00;52.00;;;;;;5090859;28;20039;-66
2023/05/15 05:36:42;;;;;;;3.00;2.30;;;24.00;49.50;;;;;;5090967;28;20046;-65
2023/05/15 05:39:08;;;;;;;5.20;2.63;;;24.10;48.80;;;;;;5091248;28;20476;-63
2023/05/15 05:41:34;;;;;;;4.53;2.60;;;24.10;50.30;;;;;;5090672;28;20039;-66
2023/05/15 05:44:00;;;;;;;4.00;2.40;;;24.20;49.90;;;;;;5090816;28;20407;-65
2023/05/15 05:46:26;;;;;;;3.50;2.22;;;24.10;49.30;;;;;;5090975;28;20036;-65
2023/05/15 05:48:52;;;;;;;3.67;2.13;;;24.10;51.70;;;;;;5094703;28;20032;-64
2023/05/15 05:51:18;;;;;;;5.15;2.33;;;24.10;50.40;;;;;;5094912;28;20040;-65
2023/05/15 05:53:44;;;;;;;3.08;2.00;;;24.10;43.40;;;;;;5094939;28;20451;-66
2023/05/15 05:56:10;;;;;;;2.85;2.30;;;24.20;47.50;;;;;;5095038;28;20044;-65
2023/05/15 05:58:36;;;;;;;4.38;2.10;;;24.20;46.80;;;;;;5094847;28;20436;-65
2023/05/15 06:01:04;;;;;;;2.47;1.80;;;24.10;50.80;;;;;;5094859;28;20125;-65
2023/05/15 06:03:30;;;;;;;3.30;1.90;;;24.10;49.30;;;;;;5091307;28;20028;-64
2023/05/15 06:05:56;;;;;;;4.38;1.90;;;24.20;48.90;;;;;;5094663;28;20028;-65
2023/05/15 06:08:22;;;;;;;4.10;2.28;;;24.20;48.90;;;;;;5111928;28;20028;-66
2023/05/15 06:10:48;;;;;;;6.20;2.22;;;24.30;47.50;;;;;;5108943;28;20032;-66
2023/05/15 06:13:14;;;;;;;3.03;2.40;;;24.60;50.60;;;;;;5094322;28;20032;-65
2023/05/15 06:15:40;;;;;;;2.38;2.00;;;24.60;50.60;;;;;;5091093;28;20158;-65
2023/05/15 06:18:06;;;;;;;2.33;1.60;;;24.60;46.60;;;;;;5094384;28;20062;-65
2023/05/15 06:20:32;;;;;;;3.10;2.28;;;24.70;50.40;;;;;;5077763;28;20088;-65
2023/05/15 06:22:58;;;;;;;2.63;2.00;;;24.50;48.30;;;;;;5073786;28;20040;-64
2023/05/15 06:25:24;;;;;;;2.72;1.92;;;24.60;50.60;;;;;;5073862;28;20342;-68
2023/05/15 06:27:50;;;;;;;1.85;1.73;;;24.50;51.20;;;;;;5072461;28;20106;-63
2023/05/15 06:30:16;;;;;;;2.25;1.88;;;24.40;47.10;;;;;;5073847;28;20035;-64
2023/05/15 06:32:42;;;;;;;3.28;1.70;;;24.50;50.90;;;;;;5087536;28;20064;-64
2023/05/15 06:35:09;;;;;;;2.63;1.73;;;24.40;49.10;;;;;;5073692;28;20036;-64
2023/05/15 06:37:36;;;;;;;12.52;2.15;;;24.50;52.20;;;;;;5089458;28;20064;-64
2023/05/15 06:40:03;;;;;;;5.80;1.75;;;24.50;51.70;;;;;;5093807;28;20513;-66
2023/05/15 06:42:30;;;;;;;3.75;1.42;;;24.40;51.10;;;;;;5093472;28;20437;-66
2023/05/15 06:44:56;;;;;;;6.22;1.70;;;24.50;51.60;;;;;;5092558;28;20526;-66
2023/05/15 06:47:22;;;;;;;0.90;0.88;;;24.50;52.00;;;;;;5093479;28;20036;-66
2023/05/15 06:49:48;;;;;;;2.00;1.38;;;24.50;51.50;;;;;;5075298;28;20032;-66
2023/05/15 06:52:14;;;;;;;6.22;1.98;;;24.50;52.50;;;;;;5093638;28;20109;-65
2023/05/15 06:54:41;;;;;;;5.50;2.25;;;24.50;51.00;;;;;;5093426;28;20467;-65
2023/05/15 06:57:07;;;;;;;7.45;2.17;;;24.60;48.00;;;;;;5093496;28;20452;-67
2023/05/15 06:59:34;;;;;;;3.75;2.03;;;24.50;51.20;;;;;;5093197;28;20070;-66
2023/05/15 07:02:02;;;;;;;3.55;2.35;;;24.60;49.90;;;;;;5093682;28;20525;-66
2023/05/15 07:04:29;;;;;;;3.88;1.58;;;24.60;50.10;;;;;;5093393;28;20052;-66
2023/05/15 07:06:56;;;;;;;2.65;1.40;;;24.50;50.30;;;;;;5092083;28;20032;-66
2023/05/15 07:09:24;;;;;;;2.05;1.45;;;24.60;50.40;;;;;;5073139;28;20049;-67
2023/05/15 07:11:50;;;;;;;1.15;1.05;;;24.50;50.20;;;;;;5090019;28;20415;-67
2023/05/15 07:14:16;;;;;;;6.20;1.45;;;24.60;48.10;;;;;;5092887;28;20039;-67
2023/05/15 07:16:42;;;;;;;4.43;1.52;;;24.50;45.40;;;;;;5093221;28;20024;-64
2023/05/15 07:19:08;;;;;;;5.05;2.33;;;24.50;46.10;;;;;;5093229;28;20430;-69
2023/05/15 07:21:34;;;;;;;3.53;2.00;;;24.50;44.00;;;;;;5093256;28;20043;-66
2023/05/15 07:24:00;;;;;;;3.55;1.30;;;24.50;43.60;;;;;;5093127;28;20028;-65
2023/05/15 07:26:26;;;;;;;3.85;1.55;;;24.60;44.40;;;;;;5091485;28;20422;-66
2023/05/15 07:28:52;;;;;;;3.15;1.67;;;24.40;43.90;;;;;;5091886;28;20032;-66
2023/05/15 07:31:19;;;;;;;3.95;1.92;;;24.40;40.30;;;;;;5092554;28;20639;-65
2023/05/15 07:33:45;;;;;;;1.83;1.52;;;24.30;39.40;;;;;;5073706;28;20040;-65
2023/05/15 07:36:11;;;;;;;2.95;1.63;;;24.50;42.40;;;;;;5090341;28;20484;-65
2023/05/15 07:38:37;;;;;;;6.63;2.08;;;24.40;43.60;;;;;;5091367;28;20069;-66
2023/05/15 07:41:03;;;;;;;5.05;1.83;;;24.40;44.40;;;;;;5092557;28;20036;-66
2023/05/15 07:43:29;;;;;;;6.78;2.08;;;24.30;38.90;;;;;;5092387;28;20032;-66
2023/05/15 07:45:55;;;;;;;9.48;2.47;;;24.30;40.30;;;;;;5092467;28;20429;-67
2023/05/15 07:48:21;;;;;;;3.50;1.58;;;24.30;41.20;;;;;;5090941;28;20036;-66
2023/05/15 07:50:47;;;;;;;2.83;1.98;;;24.30;42.20;;;;;;5092521;28;20087;-65
2023/05/15 07:53:15;;;;;;;1.45;1.33;;;24.40;39.60;;;;;;5092126;28;20028;-66
2023/05/15 07:55:42;;;;;;;1.73;1.33;;;24.30;38.70;;;;;;5092461;28;20131;-66
2023/05/15 07:58:08;;;;;;;3.28;2.10;;;24.30;38.90;;;;;;5089917;28;20084;-66
2023/05/15 08:00:35;;;;;;;1.27;1.17;;;24.30;39.50;;;;;;5090503;28;20063;-63
2023/05/15 08:03:01;;;;;;;8.45;3.33;;;24.30;38.50;;;;;;5092122;28;20115;-66
2023/05/15 08:05:28;;;;;;;2.72;1.95;;;24.50;37.10;;;;;;5092172;28;20404;-65
2023/05/15 08:07:55;;;;;;;3.47;1.80;;;24.40;37.40;;;;;;5090958;28;20054;-66
2023/05/15 08:10:21;;;;;;;6.18;2.30;;;24.30;38.10;;;;;;5091219;28;20468;-67
2023/05/15 08:12:49;;;;;;;7.47;2.15;;;24.30;37.30;;;;;;5092158;28;20399;-68
2023/05/15 08:15:15;;;;;;;5.93;2.15;;;24.40;38.60;;;;;;5092024;28;20145;-67
2023/05/15 08:17:41;;;;;;;2.70;1.85;;;24.30;37.80;;;;;;5091882;28;20035;-66
2023/05/15 08:20:08;;;;;;;5.90;1.75;;;24.40;39.70;;;;;;5080275;28;20096;-66
2023/05/15 08:22:34;;;;;;;3.67;1.50;;;24.30;40.40;;;;;;5071779;28;20108;-67
2023/05/15 08:25:02;;;;;;;1.95;1.63;;;24.30;41.40;;;;;;5071872;28;20111;-67
2023/05/15 08:27:28;;;;;;;3.95;1.98;;;24.30;41.50;;;;;;5068805;28;20115;-66
2023/05/15 08:29:54;;;;;;;2.38;2.17;;;24.10;41.00;;;;;;5068926;28;20048;-67
2023/05/15 08:32:21;;;;;;;5.43;1.75;;;24.30;42.50;;;;;;5052004;28;20041;-68
2023/05/15 08:34:47;;;;;;;7.80;2.20;;;24.20;44.20;;;;;;5086417;28;20130;-67
2023/05/15 08:37:13;;;;;;;3.00;2.28;;;24.10;43.80;;;;;;5089000;28;20450;-67
2023/05/15 08:39:39;;;;;;;5.03;2.10;;;24.20;44.80;;;;;;5088988;28;20428;-67
2023/05/15 08:42:10;;;;;;;5.28;2.00;;;24.20;44.80;;;;;;5088618;28;20055;-66
2023/05/15 08:44:36;;;;;;;5.60;2.67;;;24.30;48.10;;;;;;5089034;28;20036;-64
2023/05/15 08:47:04;;;;;;;3.00;2.70;;;24.20;43.20;;;;;;5089049;28;20434;-66
2023/05/15 08:49:52;;;;;;;3.65;2.47;;;24.40;42.90;;;;;;5072003;28;20044;-66
2023/05/15 08:52:18;;;;;;;5.32;3.65;;;24.40;45.90;;;;;;5088686;28;20051;-67
2023/05/15 08:54:46;;;;;;;11.20;3.28;;;24.60;44.60;;;;;;5088776;28;20070;-66
2023/05/15 08:57:14;;;;;;;8.88;2.60;;;24.70;46.80;;;;;;5071912;28;20143;-66
2023/05/15 08:59:40;;;;;;;6.85;1.65;;;24.70;44.80;;;;;;5090943;28;20067;-67
2023/05/15 09:02:06;;;;;;;6.97;2.38;;;24.80;47.80;;;;;;5090751;28;20111;-66
2023/05/15 09:04:32;;;;;;;6.63;2.42;;;24.90;48.00;;;;;;5075227;28;20131;-66
2023/05/15 09:07:00;;;;;;;2.03;1.52;;;24.90;44.60;;;;;;5071013;28;20029;-65
2023/05/15 09:09:28;;;;;;;2.13;1.70;;;24.70;46.60;;;;;;5071171;28;20039;-66
2023/05/15 09:11:55;;;;;;;7.07;2.50;;;24.80;48.70;;;;;;5085621;28;20024;-66
2023/05/15 09:14:21;;;;;;;3.88;2.28;;;24.70;48.20;;;;;;5070668;28;20508;-66
2023/05/15 09:16:49;;;;;;;10.20;2.42;;;24.90;48.40;;;;;;5071196;28;20071;-67
2023/05/15 09:19:17;;;;;;;2.90;2.00;;;24.80;49.40;;;;;;5070800;28;20086;-66
2023/05/15 09:21:43;;;;;;;7.05;2.17;;;24.90;47.90;;;;;;5073086;28;20738;-67
2023/05/15 09:24:27;;;;;;;4.57;2.33;;;24.70;47.10;;;;;;5075055;28;20039;-65
2023/05/15 09:27:05;;;;;;;5.80;2.05;;;24.70;47.00;;;;;;5075199;28;20468;-68
2023/05/15 09:29:36;;;;;;;5.57;1.67;;;24.70;46.70;;;;;;5073537;28;20361;-67
2023/05/15 09:32:07;;;;;;;2.55;2.17;;;24.70;50.50;;;;;;5074940;28;20078;-67
2023/05/15 09:34:35;;;;;;;5.93;2.53;;;24.70;52.90;;;;;;5075089;28;20037;-67
2023/05/15 09:37:07;;;;;;;4.60;2.30;;;24.70;50.10;;;;;;5074886;28;20059;-67
2023/05/15 09:39:41;;;;;;;2.33;1.85;;;24.80;51.80;;;;;;5074870;28;20325;-66
2023/05/15 09:42:08;;;;;;;6.90;2.42;;;24.70;50.90;;;;;;5051896;28;20044;-66
2023/05/15 09:44:34;;;;;;;2.17;1.70;;;24.70;50.70;;;;;;5052165;28;20056;-66
2023/05/15 09:47:03;;;;;;;4.28;1.95;;;24.80;55.70;;;;;;5052022;28;20037;-66
2023/05/15 09:49:30;;;;;;;9.10;2.45;;;24.70;54.50;;;;;;5051758;28;20127;-65
2023/05/15 09:52:00;;;;;;;5.50;2.75;;;24.80;54.30;;;;;;5051932;28;20063;-66
2023/05/15 09:54:26;;;;;;;13.18;2.17;;;25.00;50.20;;;;;;5051763;28;20036;-66
2023/05/15 09:56:53;;;;;;;2.63;2.22;;;25.00;54.60;;;;;;5052566;28;20593;-64
2023/05/15 09:59:20;;;;;;;2.67;2.30;;;25.30;56.30;;;;;;5051751;28;20036;-66
2023/05/15 10:01:48;;;;;;;3.88;2.15;;;25.30;52.40;;;;;;5074451;28;20509;-66
2023/05/15 10:04:15;;;;;;;9.05;2.90;;;25.40;53.20;;;;;;5068221;28;20085;-66
2023/05/15 10:06:45;;;;;;;7.38;2.78;;;25.60;52.70;;;;;;5068295;28;20151;-66
2023/05/15 10:09:12;;;;;;;3.05;1.75;;;25.80;50.70;;;;;;5082444;28;20344;-67
2023/05/15 10:11:43;;;;;;;2.03;1.70;;;25.80;46.40;;;;;;5055804;28;20124;-68
2023/05/15 10:14:12;;;;;;;3.67;1.80;;;25.90;50.90;;;;;;5107475;28;20047;-68
2023/05/15 10:16:39;;;;;;;7.85;2.25;;;25.60;52.10;;;;;;5106892;28;20055;-68
2023/05/15 10:19:10;;;;;;;7.35;2.40;;;25.70;48.70;;;;;;5114935;28;20110;-67
2023/05/15 10:21:38;;;;;;;9.13;2.50;;;25.60;48.30;;;;;;5098040;28;20044;-66
2023/05/15 10:24:05;;;;;;;3.95;2.58;;;25.70;46.70;;;;;;5091051;28;20040;-65
2023/05/15 10:26:38;;;;;;;5.70;2.05;;;25.80;48.80;;;;;;5094332;28;20054;-68
2023/05/15 10:29:17;;;;;;;7.32;2.55;;;25.90;48.30;;;;;;5093319;28;20044;-69
2023/05/15 10:31:44;;;;;;;7.68;2.08;;;26.10;52.80;;;;;;5093701;28;20028;-68
2023/05/15 10:34:11;;;;;;;6.22;2.45;;;26.60;52.60;;;;;;5093362;28;20116;-67
2023/05/15 10:36:37;;;;;;;3.65;1.70;;;26.90;49.20;;;;;;5093911;28;20036;-68
2023/05/15 10:39:06;;;;;;;5.57;2.42;;;26.80;49.20;;;;;;5093880;28;20379;-67
2023/05/15 10:41:35;;;;;;;2.25;1.80;;;26.70;47.20;;;;;;5094112;28;20101;-68
2023/05/15 10:44:02;;;;;;;2.63;1.58;;;26.60;48.00;;;;;;5093829;28;20036;-67
2023/05/15 10:46:30;;;;;;;3.58;2.72;;;26.30;48.10;;;;;;5093627;28;20032;-68
2023/05/15 10:48:57;;;;;;;2.22;1.45;;;26.30;48.10;;;;;;5093871;28;20037;-67
2023/05/15 10:51:28;;;;;;;5.63;2.30;;;26.30;48.50;;;;;;5093782;28;20763;-68
2023/05/15 10:53:58;;;;;;;3.30;2.25;;;26.20;48.80;;;;;;5093835;28;20036;-68
2023/05/15 10:56:37;;;;;;;4.78;1.65;;;26.10;48.10;;;;;;5093582;28;20139;-67
2023/05/15 10:59:09;;;;;;;4.13;2.33;;;26.00;48.60;;;;;;5091703;28;20430;-69
2023/05/15 11:01:36;;;;;;;10.13;2.65;;;26.00;43.70;;;;;;5110615;28;20066;-68
2023/05/15 11:04:06;;;;;;;3.22;2.05;;;26.00;49.10;;;;;;5113819;28;20036;-67
2023/05/15 11:06:33;;;;;;;4.30;1.98;;;25.80;47.50;;;;;;5095802;28;20044;-67
2023/05/15 11:09:21;;;;;;;3.13;2.28;;;25.80;46.60;;;;;;5113930;28;20325;-67
2023/05/15 11:11:56;;;;;;;4.28;2.38;;;25.80;45.10;;;;;;5095391;28;20040;-68
2023/05/15 11:14:23;;;;;;;2.80;1.90;;;25.80;46.40;;;;;;5093113;28;20035;-69
2023/05/15 11:16:52;;;;;;;3.28;1.60;;;25.70;45.80;;;;;;5093494;28;20051;-68
2023/05/15 11:19:38;;;;;;;6.55;2.58;;;25.60;47.30;;;;;;5093296;28;20060;-68
2023/05/15 11:22:07;;;;;;;3.88;1.92;;;25.50;48.00;;;;;;5093052;28;20032;-68
2023/05/15 11:24:51;;;;;;;3.22;1.88;;;25.60;50.00;;;;;;5093035;28;20036;-68
2023/05/15 11:27:23;;;;;;;2.85;1.33;;;25.50;49.60;;;;;;5093085;28;20034;-68
2023/05/15 11:30:05;;;;;;;5.07;1.50;;;25.60;48.30;;;;;;5093127;28;20020;-68
2023/05/15 11:32:49;;;;;;;7.93;1.70;;;25.50;50.30;;;;;;5091550;28;20055;-67
2023/05/15 11:35:21;;;;;;;3.00;2.08;;;25.40;50.30;;;;;;5093153;28;20036;-71
2023/05/15 11:37:47;;;;;;;4.00;2.33;;;25.60;44.90;;;;;;5091964;28;20115;-74
2023/05/15 11:40:18;;;;;;;9.48;1.92;;;25.40;44.90;;;;;;5092796;28;20119;-68
2023/05/15 11:42:57;;;;;;;1.77;1.27;;;25.50;45.30;;;;;;5092826;28;20085;-68
2023/05/15 11:45:23;;;;;;;1.70;1.58;;;25.40;47.50;;;;;;5089060;28;20043;-68
2023/05/15 11:47:50;;;;;;;8.65;1.70;;;25.40;46.40;;;;;;5089964;28;20052;-68
2023/05/15 11:50:16;;;;;;;7.15;1.80;;;25.40;48.90;;;;;;5089791;28;20036;-67
2023/05/15 11:52:43;;;;;;;2.22;1.75;;;25.40;44.30;;;;;;5090186;28;20040;-68
2023/05/15 11:55:09;;;;;;;1.83;1.67;;;25.40;46.90;;;;;;5090165;28;20044;-68
2023/05/15 11:57:37;;;;;;;2.33;1.83;;;25.30;41.20;;;;;;5089859;28;20043;-68
2023/05/15 12:00:05;;;;;;;1.80;1.58;;;25.50;45.00;;;;;;5089673;28;20055;-69
2023/05/15 12:02:31;;;;;;;0.50;0.50;;;25.30;46.90;;;;;;5089316;28;20036;-68
2023/05/15 12:04:57;;;;;;;6.22;1.50;;;25.40;46.50;;;;;;5089267;28;20036;-69
2023/05/15 12:07:23;;;;;;;1.23;1.15;;;25.30;47.40;;;;;;5089421;28;20040;-69
2023/05/15 12:09:54;;;;;;;4.47;1.42;;;25.30;47.00;;;;;;5089487;28;20096;-68
2023/05/15 12:12:20;;;;;;;3.13;1.70;;;25.30;46.40;;;;;;5069542;28;20028;-69
2023/05/15 12:14:46;;;;;;;1.80;1.58;;;25.30;44.70;;;;;;5052755;28;20079;-68
2023/05/15 12:17:12;;;;;;;9.13;1.90;;;25.20;45.60;;;;;;5086199;28;20067;-70
2023/05/15 12:19:38;;;;;;;2.33;1.67;;;25.30;45.40;;;;;;5089302;28;20450;-73
2023/05/15 12:22:05;;;;;;;4.05;1.67;;;25.20;45.70;;;;;;5072991;28;20519;-70
2023/05/15 12:24:31;;;;;;;3.28;1.58;;;25.20;45.40;;;;;;5089171;28;20114;-72
2023/05/15 12:26:58;;;;;;;2.47;2.03;;;25.30;45.80;;;;;;5089619;28;20111;-70
2023/05/15 12:29:26;;;;;;;1.88;1.73;;;25.10;45.00;;;;;;5089312;28;20708;-69
2023/05/15 12:31:52;;;;;;;5.57;1.70;;;25.30;45.20;;;;;;5092095;28;20086;-69
2023/05/15 12:34:19;;;;;;;4.25;1.65;;;25.20;46.50;;;;;;5089081;28;20460;-69
2023/05/15 12:36:45;;;;;;;12.70;3.25;;;25.30;44.20;;;;;;5074562;28;20064;-70
2023/05/15 12:39:11;;;;;;;9.35;1.50;;;25.20;44.60;;;;;;5081999;28;20027;-70
2023/05/15 12:41:38;;;;;;;6.47;2.08;;;25.30;40.60;;;;;;5090486;28;20031;-69
2023/05/15 12:44:05;;;;;;;7.07;1.40;;;25.30;44.90;;;;;;5092202;28;20122;-69
2023/05/15 12:46:31;;;;;;;4.00;2.15;;;25.20;45.30;;;;;;5091631;28;20490;-70
2023/05/15 12:49:00;;;;;;;1.70;1.05;;;25.20;42.90;;;;;;5090604;28;20047;-72